createdAt,value
2023-04-20T00:00:39.778Z,2.963
2023-04-20T00:01:39.807Z,2.984
2023-04-20T00:02:40.038Z,2.954
2023-04-20T00:03:40.101Z,2.954
2023-04-20T00:04:40.008Z,2.968
2023-04-20T00:05:39.979Z,2.94
2023-04-20T00:06:40.025Z,2.94
2023-04-20T00:07:40.066Z,2.926
2023-04-20T00:08:40.104Z,2.917
2023-04-20T00:09:40.151Z,2.917
2023-04-20T00:10:40.182Z,2.917
2023-04-20T00:11:40.223Z,2.917
2023-04-20T00:12:40.263Z,2.931
2023-04-20T00:13:40.307Z,2.945
2023-04-20T00:14:40.354Z,2.96
2023-04-20T00:15:40.393Z,2.997
2023-04-20T00:16:40.438Z,2.997
2023-04-20T00:17:40.564Z,2.968
2023-04-20T00:18:40.508Z,2.945
2023-04-20T00:19:40.544Z,2.96
2023-04-20T00:20:40.583Z,2.997
2023-04-20T00:21:40.625Z,2.96
2023-04-20T00:22:40.671Z,2.968
2023-04-20T00:23:40.704Z,2.968
2023-04-20T00:24:40.750Z,2.968
2023-04-20T00:25:40.822Z,2.94
2023-04-20T00:26:40.842Z,2.954
2023-04-20T00:27:40.870Z,2.954
2023-04-20T00:28:40.919Z,2.94
2023-04-20T00:29:40.963Z,2.94
2023-04-20T00:30:41.010Z,2.926
2023-04-20T00:31:41.046Z,2.911
2023-04-20T00:32:41.107Z,2.926
2023-04-20T00:33:41.122Z,2.926
2023-04-20T00:34:41.182Z,2.926
2023-04-20T00:35:41.203Z,2.94
2023-04-20T00:36:41.253Z,2.926
2023-04-20T00:37:41.295Z,2.926
2023-04-20T00:38:41.335Z,2.94
2023-04-20T00:39:41.390Z,2.94
2023-04-20T00:40:41.417Z,2.94
2023-04-20T00:41:41.478Z,2.911
2023-04-20T00:42:41.538Z,2.929
2023-04-20T00:43:41.540Z,2.964
2023-04-20T00:44:41.589Z,2.929
2023-04-20T00:45:41.662Z,2.929
2023-04-20T00:46:41.848Z,2.95
2023-04-20T00:47:41.716Z,2.95
2023-04-20T00:48:41.750Z,2.964
2023-04-20T00:49:41.793Z,2.978
2023-04-20T00:50:41.839Z,2.993
2023-04-20T00:51:41.883Z,2.978
2023-04-20T00:52:41.927Z,2.987
2023-04-20T00:53:41.964Z,2.959
2023-04-20T00:54:42.002Z,2.921
2023-04-20T00:55:42.039Z,2.95
2023-04-20T00:56:42.087Z,2.95
2023-04-20T00:57:42.130Z,2.95
2023-04-20T00:58:42.188Z,2.959
2023-04-20T00:59:42.213Z,2.936
2023-04-20T01:00:42.261Z,2.944
2023-04-20T01:01:42.357Z,2.93
2023-04-20T01:02:42.433Z,2.921
2023-04-20T01:03:42.691Z,2.936
2023-04-20T01:04:42.410Z,2.921
2023-04-20T01:05:42.454Z,2.921
2023-04-20T01:06:42.510Z,2.884
2023-04-20T01:07:42.546Z,2.898
2023-04-20T01:08:42.580Z,2.898
2023-04-20T01:09:42.618Z,2.927
2023-04-20T01:10:42.688Z,2.927
2023-04-20T01:11:42.710Z,2.941
2023-04-20T01:12:42.756Z,2.95
2023-04-20T01:13:42.793Z,2.927
2023-04-20T01:14:42.836Z,2.927
2023-04-20T01:15:42.898Z,2.927
2023-04-20T01:16:42.917Z,2.941
2023-04-20T01:17:42.961Z,2.927
2023-04-20T01:18:43.000Z,2.927
2023-04-20T01:19:43.036Z,2.941
2023-04-20T01:20:43.082Z,2.941
2023-04-20T01:21:43.125Z,2.955
2023-04-20T01:22:43.165Z,2.955
2023-04-20T01:23:43.210Z,2.933
2023-04-20T01:24:43.248Z,2.948
2023-04-20T01:25:43.295Z,2.948
2023-04-20T01:26:43.329Z,2.948
2023-04-20T01:27:43.385Z,2.939
2023-04-20T01:28:43.417Z,2.899
2023-04-20T01:29:43.448Z,2.899
2023-04-20T01:30:43.494Z,2.914
2023-04-20T01:31:43.549Z,2.905
2023-04-20T01:32:43.608Z,2.937
2023-04-20T01:33:43.617Z,2.916
2023-04-20T01:34:43.669Z,2.912
2023-04-20T01:35:43.715Z,2.926
2023-04-20T01:36:43.751Z,2.926
2023-04-20T01:37:43.796Z,2.94
2023-04-20T01:38:43.831Z,2.94
2023-04-20T01:39:43.927Z,2.94
2023-04-20T01:40:43.905Z,2.926
2023-04-20T01:41:43.945Z,2.94
2023-04-20T01:42:43.982Z,2.954
2023-04-20T01:43:44.029Z,2.954
2023-04-20T01:44:44.058Z,2.954
2023-04-20T01:45:44.109Z,2.932
2023-04-20T01:46:44.183Z,2.892
2023-04-20T01:47:44.270Z,2.892
2023-04-20T01:48:44.234Z,2.892
2023-04-20T01:49:44.281Z,2.907
2023-04-20T01:50:44.312Z,2.907
2023-04-20T01:51:44.350Z,2.921
2023-04-20T01:52:44.397Z,2.885
2023-04-20T01:53:44.430Z,2.862
2023-04-20T01:54:44.483Z,2.876
2023-04-20T01:55:44.529Z,2.876
2023-04-20T01:56:44.560Z,2.89
2023-04-20T01:57:44.602Z,2.904
2023-04-20T01:58:44.656Z,2.904
2023-04-20T01:59:44.695Z,2.918
2023-04-20T02:00:44.805Z,2.918
2023-04-20T02:01:44.787Z,2.932
2023-04-20T02:02:44.963Z,2.955
2023-04-20T02:03:45.046Z,2.955
2023-04-20T02:04:44.908Z,2.955
2023-04-20T02:05:44.946Z,2.955
2023-04-20T02:06:45.000Z,2.955
2023-04-20T02:07:45.027Z,2.978
2023-04-20T02:08:45.102Z,2.978
2023-04-20T02:09:45.121Z,2.964
2023-04-20T02:10:45.156Z,2.955
2023-04-20T02:11:45.200Z,2.955
2023-04-20T02:12:45.234Z,2.955
2023-04-20T02:13:45.278Z,2.952
2023-04-20T02:14:45.324Z,2.983
2023-04-20T02:15:45.371Z,2.983
2023-04-20T02:16:45.472Z,2.983
2023-04-20T02:17:45.549Z,2.997
2023-04-20T02:18:45.553Z,2.997
2023-04-20T02:19:45.547Z,2.997
2023-04-20T02:20:45.602Z,2.997
2023-04-20T02:21:45.630Z,2.997
2023-04-20T02:22:45.647Z,2.98
2023-04-20T02:23:45.687Z,3.002
2023-04-20T02:24:45.737Z,3.002
2023-04-20T02:25:45.763Z,3.002
2023-04-20T02:26:45.798Z,3.056
2023-04-20T02:27:45.847Z,3.056
2023-04-20T02:28:45.881Z,3.056
2023-04-20T02:29:45.921Z,3.056
2023-04-20T02:30:45.979Z,3.056
2023-04-20T02:31:46.072Z,3.065
2023-04-20T02:32:46.071Z,3.065
2023-04-20T02:33:46.094Z,3.051
2023-04-20T02:34:46.126Z,3.051
2023-04-20T02:35:46.177Z,3.037
2023-04-20T02:36:46.221Z,3.037
2023-04-20T02:37:46.258Z,3.06
2023-04-20T02:38:46.301Z,3.06
2023-04-20T02:39:46.353Z,3.06
2023-04-20T02:40:46.390Z,3.06
2023-04-20T02:41:46.449Z,3.074
2023-04-20T02:42:46.469Z,3.074
2023-04-20T02:43:46.508Z,3.074
2023-04-20T02:44:46.561Z,3.074
2023-04-20T02:45:46.598Z,3.074
2023-04-20T02:46:46.697Z,3.077
2023-04-20T02:47:46.717Z,3.077
2023-04-20T02:48:46.761Z,3.113
2023-04-20T02:49:46.768Z,3.15
2023-04-20T02:50:46.808Z,3.136
2023-04-20T02:51:46.845Z,3.122
2023-04-20T02:52:46.893Z,3.122
2023-04-20T02:53:46.963Z,3.108
2023-04-20T02:54:46.975Z,3.147
2023-04-20T02:55:47.013Z,3.17
2023-04-20T02:56:47.056Z,3.17
2023-04-20T02:57:47.112Z,3.138
2023-04-20T02:58:47.134Z,3.156
2023-04-20T02:59:47.181Z,3.156
2023-04-20T03:00:47.211Z,3.138
2023-04-20T03:01:47.273Z,3.138
2023-04-20T03:02:47.397Z,3.156
2023-04-20T03:03:47.474Z,3.156
2023-04-20T03:04:47.413Z,3.165
2023-04-20T03:05:47.418Z,3.165
2023-04-20T03:06:47.458Z,3.165
2023-04-20T03:07:47.503Z,3.165
2023-04-20T03:08:47.545Z,3.128
2023-04-20T03:09:47.588Z,3.165
2023-04-20T03:10:47.627Z,3.165
2023-04-20T03:11:47.688Z,3.165
2023-04-20T03:12:47.711Z,3.179
2023-04-20T03:13:47.750Z,3.165
2023-04-20T03:14:47.788Z,3.165
2023-04-20T03:15:47.841Z,3.151
2023-04-20T03:16:47.923Z,3.136
2023-04-20T03:17:47.954Z,3.136
2023-04-20T03:18:47.959Z,3.154
2023-04-20T03:19:48.012Z,3.132
2023-04-20T03:20:48.047Z,3.146
2023-04-20T03:21:48.087Z,3.163
2023-04-20T03:22:48.137Z,3.177
2023-04-20T03:23:48.172Z,3.191
2023-04-20T03:24:48.222Z,3.214
2023-04-20T03:25:48.251Z,3.214
2023-04-20T03:26:48.309Z,3.214
2023-04-20T03:27:48.346Z,3.2
2023-04-20T03:28:48.386Z,3.186
2023-04-20T03:29:48.423Z,3.186
2023-04-20T03:30:48.464Z,3.186
2023-04-20T03:31:48.546Z,3.186
2023-04-20T03:32:48.567Z,3.172
2023-04-20T03:33:48.587Z,3.172
2023-04-20T03:34:48.621Z,3.209
2023-04-20T03:35:48.663Z,3.209
2023-04-20T03:36:48.696Z,3.223
2023-04-20T03:37:48.751Z,3.209
2023-04-20T03:38:48.781Z,3.195
2023-04-20T03:39:48.816Z,3.217
2023-04-20T03:40:48.872Z,3.217
2023-04-20T03:41:48.909Z,3.203
2023-04-20T03:42:48.946Z,3.175
2023-04-20T03:43:48.994Z,3.184
2023-04-20T03:44:49.029Z,3.169
2023-04-20T03:45:49.088Z,3.169
2023-04-20T03:46:49.109Z,3.155
2023-04-20T03:47:49.177Z,3.141
2023-04-20T03:48:49.202Z,3.109
2023-04-20T03:49:49.248Z,3.095
2023-04-20T03:50:49.286Z,3.112
2023-04-20T03:51:49.324Z,3.124
2023-04-20T03:52:49.372Z,3.141
2023-04-20T03:53:49.407Z,3.141
2023-04-20T03:54:49.450Z,3.127
2023-04-20T03:55:49.496Z,3.127
2023-04-20T03:56:49.535Z,3.112
2023-04-20T03:57:49.568Z,3.098
2023-04-20T03:58:49.614Z,3.084
2023-04-20T03:59:49.671Z,3.07
2023-04-20T04:00:49.693Z,3.078
2023-04-20T04:01:49.775Z,3.078
2023-04-20T04:02:50.090Z,3.064
2023-04-20T04:03:50.043Z,3.05
2023-04-20T04:04:49.978Z,3.032
2023-04-20T04:05:49.899Z,3.05
2023-04-20T04:06:49.944Z,3.032
2023-04-20T04:07:49.993Z,3.05
2023-04-20T04:08:50.037Z,3.021
2023-04-20T04:09:50.079Z,3.044
2023-04-20T04:10:50.112Z,3.044
2023-04-20T04:11:50.147Z,3.044
2023-04-20T04:12:50.189Z,3.044
2023-04-20T04:13:50.230Z,3.03
2023-04-20T04:14:50.279Z,3.03
2023-04-20T04:15:50.315Z,3.03
2023-04-20T04:16:50.376Z,3.007
2023-04-20T04:17:50.441Z,3.044
2023-04-20T04:18:50.433Z,3.044
2023-04-20T04:19:50.472Z,3.044
2023-04-20T04:20:50.510Z,3.044
2023-04-20T04:21:50.540Z,3.044
2023-04-20T04:22:50.583Z,3.081
2023-04-20T04:23:50.644Z,3.067
2023-04-20T04:24:50.677Z,3.053
2023-04-20T04:25:50.715Z,3.053
2023-04-20T04:26:50.751Z,3.053
2023-04-20T04:27:50.818Z,3.067
2023-04-20T04:28:50.837Z,3.124
2023-04-20T04:29:50.875Z,3.124
2023-04-20T04:30:50.923Z,3.143
2023-04-20T04:31:50.998Z,3.139
2023-04-20T04:32:51.107Z,3.168
2023-04-20T04:33:51.047Z,3.205
2023-04-20T04:34:51.079Z,3.202
2023-04-20T04:35:51.208Z,3.219
2023-04-20T04:36:51.163Z,3.214
2023-04-20T04:37:51.198Z,3.182
2023-04-20T04:38:51.232Z,3.176
2023-04-20T04:39:51.281Z,3.176
2023-04-20T04:40:51.328Z,3.176
2023-04-20T04:41:51.379Z,3.176
2023-04-20T04:42:51.409Z,3.194
2023-04-20T04:43:51.449Z,3.204
2023-04-20T04:44:51.490Z,3.218
2023-04-20T04:45:51.528Z,3.233
2023-04-20T04:46:51.575Z,3.247
2023-04-20T04:47:51.661Z,3.247
2023-04-20T04:48:51.654Z,3.247
2023-04-20T04:49:51.680Z,3.261
2023-04-20T04:50:51.778Z,3.276
2023-04-20T04:52:51.799Z,3.371
2023-04-20T04:53:51.849Z,3.357
2023-04-20T04:54:51.905Z,3.371
2023-04-20T04:55:51.931Z,3.408
2023-04-20T04:56:51.968Z,3.408
2023-04-20T04:57:52.013Z,3.408
2023-04-20T04:58:52.055Z,3.408
2023-04-20T04:59:52.105Z,3.446
2023-04-20T05:00:52.130Z,3.446
2023-04-20T05:01:52.251Z,3.431
2023-04-20T05:02:52.345Z,3.403
2023-04-20T05:03:52.347Z,3.374
2023-04-20T05:04:52.338Z,3.374
2023-04-20T05:05:52.343Z,3.374
2023-04-20T05:06:52.378Z,3.374
2023-04-20T05:07:52.427Z,3.389
2023-04-20T05:08:52.458Z,3.389
2023-04-20T05:09:52.503Z,3.397
2023-04-20T05:10:52.544Z,3.383
2023-04-20T05:11:52.574Z,3.436
2023-04-20T05:12:52.618Z,3.422
2023-04-20T05:13:52.652Z,3.436
2023-04-20T05:14:52.697Z,3.498
2023-04-20T05:15:52.739Z,3.484
2023-04-20T05:16:52.772Z,3.484
2023-04-20T05:17:52.887Z,3.506
2023-04-20T05:18:52.850Z,3.492
2023-04-20T05:19:52.914Z,3.391
2023-04-20T05:20:52.942Z,3.304
2023-04-20T05:21:52.979Z,3.246
2023-04-20T05:22:53.017Z,3.26
2023-04-20T05:23:53.053Z,3.238
2023-04-20T05:24:53.085Z,3.318
2023-04-20T05:25:53.134Z,3.347
2023-04-20T05:26:53.178Z,3.347
2023-04-20T05:27:53.217Z,3.385
2023-04-20T05:28:53.253Z,3.327
2023-04-20T05:29:53.289Z,3.298
2023-04-20T05:30:53.333Z,3.306
2023-04-20T05:31:53.383Z,3.248
2023-04-20T05:32:53.454Z,3.218
2023-04-20T05:33:53.451Z,3.204
2023-04-20T05:34:53.549Z,3.16
2023-04-20T05:35:53.534Z,3.13
2023-04-20T05:36:53.573Z,3.16
2023-04-20T05:37:53.605Z,3.229
2023-04-20T05:38:53.649Z,3.282
2023-04-20T05:39:53.682Z,3.267
2023-04-20T05:40:53.722Z,3.267
2023-04-20T05:42:53.805Z,3.296
2023-04-20T05:43:53.844Z,3.26
2023-04-20T05:44:53.888Z,3.192
2023-04-20T05:45:54.029Z,3.266
2023-04-20T05:46:53.976Z,3.298
2023-04-20T05:47:54.042Z,3.268
2023-04-20T05:48:54.070Z,3.261
2023-04-20T05:49:54.108Z,3.232
2023-04-20T05:50:54.119Z,3.202
2023-04-20T05:51:54.158Z,3.202
2023-04-20T05:52:54.215Z,3.195
2023-04-20T05:53:54.231Z,3.18
2023-04-20T05:54:54.276Z,3.178
2023-04-20T05:55:54.322Z,3.105
2023-04-20T05:56:54.350Z,3.063
2023-04-20T05:57:54.395Z,3.08
2023-04-20T05:58:54.432Z,3.05
2023-04-20T05:59:54.459Z,3.065
2023-04-20T06:00:54.515Z,3.035
2023-04-20T06:01:54.583Z,3.053
2023-04-20T06:02:54.727Z,3.103
2023-04-20T06:03:54.911Z,3.133
2023-04-20T06:04:54.883Z,3.09
2023-04-20T06:05:54.699Z,3.058
2023-04-20T06:06:54.733Z,3.096
2023-04-20T06:07:54.782Z,3.035
2023-04-20T06:08:54.820Z,3.005
2023-04-20T06:09:54.860Z,2.936
2023-04-20T06:10:54.911Z,2.951
2023-04-20T06:11:54.936Z,2.921
2023-04-20T06:12:54.993Z,2.959
2023-04-20T06:13:55.013Z,3.005
2023-04-20T06:14:55.056Z,3.027
2023-04-20T06:15:55.128Z,2.95
2023-04-20T06:16:55.147Z,3.007
2023-04-20T06:17:55.211Z,2.965
2023-04-20T06:18:55.224Z,2.888
2023-04-20T06:19:55.277Z,2.934
2023-04-20T06:20:55.304Z,3.011
2023-04-20T06:21:55.349Z,3.042
2023-04-20T06:22:55.392Z,2.996
2023-04-20T06:23:55.429Z,2.912
2023-04-20T06:24:55.472Z,2.927
2023-04-20T06:25:55.506Z,2.942
2023-04-20T06:26:55.543Z,2.996
2023-04-20T06:27:55.582Z,3.011
2023-04-20T06:28:55.635Z,3.011
2023-04-20T06:29:55.674Z,3.042
2023-04-20T06:30:55.758Z,3.026
2023-04-20T06:31:55.750Z,3.042
2023-04-20T06:32:55.851Z,3.094
2023-04-20T06:33:55.817Z,3.094
2023-04-20T06:34:55.861Z,3.102
2023-04-20T06:35:55.904Z,3.078
2023-04-20T06:36:55.945Z,3.063
2023-04-20T06:37:55.996Z,3.047
2023-04-20T06:38:56.023Z,2.929
2023-04-20T06:39:56.059Z,2.945
2023-04-20T06:40:56.098Z,2.978
2023-04-20T06:41:56.138Z,2.998
2023-04-20T06:42:56.176Z,3.083
2023-04-20T06:43:56.222Z,3.098
2023-04-20T06:44:56.261Z,3.021
2023-04-20T06:45:56.295Z,2.982
2023-04-20T06:46:56.421Z,3.028
2023-04-20T06:47:56.429Z,3.086
2023-04-20T06:48:56.423Z,3.102
2023-04-20T06:49:56.456Z,3.133
2023-04-20T06:50:56.526Z,3.133
2023-04-20T06:51:56.547Z,3.053
2023-04-20T06:52:56.578Z,3.053
2023-04-20T06:53:56.641Z,3.097
2023-04-20T06:54:56.672Z,3.145
2023-04-20T06:55:56.696Z,3.15
2023-04-20T06:56:56.745Z,3.088
2023-04-20T06:57:56.775Z,3.048
2023-04-20T06:58:56.814Z,3.097
2023-04-20T06:59:56.861Z,3.149
2023-04-20T07:00:56.897Z,3.224
2023-04-20T07:01:56.986Z,3.185
2023-04-20T07:02:57.086Z,3.213
2023-04-20T07:03:57.225Z,3.204
2023-04-20T07:04:57.071Z,3.141
2023-04-20T07:05:57.098Z,3.232
2023-04-20T07:06:57.142Z,3.248
2023-04-20T07:07:57.170Z,3.136
2023-04-20T07:08:57.212Z,3.206
2023-04-20T07:09:57.250Z,3.129
2023-04-20T07:10:57.285Z,3.033
2023-04-20T07:11:57.337Z,3.084
2023-04-20T07:12:57.384Z,3.185
2023-04-20T07:13:57.416Z,3.201
2023-04-20T07:14:57.448Z,3.201
2023-04-20T07:15:57.518Z,3.255
2023-04-20T07:16:57.537Z,3.271
2023-04-20T07:17:57.602Z,3.245
2023-04-20T07:18:57.622Z,3.196
2023-04-20T07:19:57.664Z,3.234
2023-04-20T07:20:57.711Z,3.108
2023-04-20T07:21:57.747Z,3.201
2023-04-20T07:22:57.801Z,3.127
2023-04-20T07:23:57.830Z,3.082
2023-04-20T07:24:57.870Z,2.936
2023-04-20T07:25:57.907Z,2.948
2023-04-20T07:26:57.951Z,2.899
2023-04-20T07:27:57.986Z,2.867
2023-04-20T07:28:58.063Z,2.958
2023-04-20T07:29:58.071Z,2.86
2023-04-20T07:30:58.109Z,2.778
2023-04-20T07:31:58.161Z,2.893
2023-04-20T07:32:58.242Z,2.942
2023-04-20T07:33:58.234Z,2.981
2023-04-20T07:34:58.257Z,2.978
2023-04-20T07:35:58.300Z,2.964
2023-04-20T07:36:58.370Z,2.863
2023-04-20T07:37:58.385Z,2.858
2023-04-20T07:38:58.420Z,2.94
2023-04-20T07:39:58.457Z,2.825
2023-04-20T07:40:58.503Z,2.923
2023-04-20T07:41:58.532Z,2.841
2023-04-20T07:42:58.579Z,2.742
2023-04-20T07:43:58.616Z,2.753
2023-04-20T07:44:58.653Z,2.886
2023-04-20T07:45:58.728Z,3.032
2023-04-20T07:46:58.824Z,3.035
2023-04-20T07:48:58.839Z,3.087
2023-04-20T07:49:58.873Z,3.096
2023-04-20T07:50:58.904Z,3.115
2023-04-20T07:52:09.271Z,3.188
2023-04-20T07:52:58.988Z,3.165
2023-04-20T07:53:59.028Z,3.098
2023-04-20T07:54:59.069Z,3.183
2023-04-20T07:55:59.130Z,3.117
2023-04-20T07:56:59.176Z,2.967
2023-04-20T07:57:59.199Z,2.873
2023-04-20T07:58:59.240Z,2.854
2023-04-20T07:59:59.277Z,2.904
2023-04-20T08:00:59.317Z,2.888
2023-04-20T08:01:59.437Z,2.871
2023-04-20T08:02:59.606Z,2.918
2023-04-20T08:03:59.641Z,2.982
2023-04-20T08:04:59.843Z,2.899
2023-04-20T08:05:59.562Z,2.863
2023-04-20T08:06:59.552Z,2.948
2023-04-20T08:07:59.589Z,2.914
2023-04-20T08:08:59.642Z,2.814
2023-04-20T08:09:59.677Z,2.745
2023-04-20T08:10:59.716Z,2.623
2023-04-20T08:11:59.758Z,2.589
2023-04-20T08:12:59.808Z,2.578
2023-04-20T08:14:00.355Z,2.75
2023-04-20T08:14:59.876Z,2.784
2023-04-20T08:15:59.996Z,2.852
2023-04-20T08:16:59.964Z,2.948
2023-04-20T08:18:00.041Z,2.829
2023-04-20T08:19:00.049Z,2.681
2023-04-20T08:20:00.117Z,2.784
2023-04-20T08:21:00.159Z,2.715
2023-04-20T08:22:01.325Z,2.88
2023-04-20T08:23:00.214Z,2.795
2023-04-20T08:24:00.250Z,2.762
2023-04-20T08:25:00.270Z,2.815
2023-04-20T08:26:00.313Z,2.861
2023-04-20T08:27:00.346Z,2.649
2023-04-20T08:28:00.397Z,2.598
2023-04-20T08:29:00.693Z,2.54
2023-04-20T08:31:00.552Z,2.588
2023-04-20T08:32:00.744Z,2.635
2023-04-20T08:33:00.722Z,2.424
2023-04-20T08:34:00.652Z,2.308
2023-04-20T08:35:00.676Z,2.399
2023-04-20T08:36:00.720Z,2.336
2023-04-20T08:37:00.753Z,2.336
2023-04-20T08:38:00.793Z,2.319
2023-04-20T08:39:00.832Z,2.41
2023-04-20T08:40:00.870Z,2.428
2023-04-20T08:41:00.922Z,2.201
2023-04-20T08:42:00.953Z,2.22
2023-04-20T08:43:00.999Z,1.999
2023-04-20T08:44:01.049Z,1.905
2023-04-20T08:45:01.097Z,1.849
2023-04-20T08:46:01.184Z,1.98
2023-04-20T08:47:01.267Z,1.905
2023-04-20T08:48:01.255Z,1.822
2023-04-20T08:49:01.297Z,1.822
2023-04-20T08:51:01.336Z,1.98
2023-04-20T08:52:01.397Z,2.09
2023-04-20T08:53:01.409Z,2.071
2023-04-20T08:54:01.471Z,2.062
2023-04-20T08:55:01.491Z,2.062
2023-04-20T08:56:01.522Z,2.062
2023-04-20T08:57:01.589Z,2.243
2023-04-20T08:58:01.600Z,2.171
2023-04-20T08:59:01.635Z,2.098
2023-04-20T09:00:01.705Z,2.188
2023-04-20T09:01:01.805Z,2.251
2023-04-20T09:02:01.841Z,2.322
2023-04-20T09:03:02.050Z,2.393
2023-04-20T09:04:01.959Z,2.447
2023-04-20T09:05:01.940Z,2.489
2023-04-20T09:06:01.928Z,2.525
2023-04-20T09:07:01.954Z,2.488
2023-04-20T09:08:01.998Z,2.418
2023-04-20T09:09:02.029Z,2.452
2023-04-20T09:10:02.096Z,2.494
2023-04-20T09:11:02.103Z,2.511
2023-04-20T09:12:02.145Z,2.597
2023-04-20T09:13:02.193Z,2.649
2023-04-20T09:14:02.227Z,2.725
2023-04-20T09:15:02.251Z,2.759
2023-04-20T09:16:02.307Z,2.742
2023-04-20T09:17:02.331Z,2.723
2023-04-20T09:18:02.409Z,2.861
2023-04-20T09:19:02.439Z,2.918
2023-04-20T09:20:02.466Z,3.019
2023-04-20T09:21:02.509Z,3.034
2023-04-20T09:22:02.544Z,3.218
2023-04-20T09:23:02.589Z,3.218
2023-04-20T09:24:02.637Z,3.301
2023-04-20T09:25:02.672Z,3.252
2023-04-20T09:26:02.704Z,3.235
2023-04-20T09:27:02.745Z,3.218
2023-04-20T09:28:02.821Z,3.185
2023-04-20T09:29:02.844Z,3.252
2023-04-20T09:30:02.863Z,3.318
2023-04-20T09:31:02.919Z,3.216
2023-04-20T09:32:03.007Z,3.199
2023-04-20T09:33:03.064Z,3.199
2023-04-20T09:34:03.089Z,3.216
2023-04-20T09:35:03.070Z,3.266
2023-04-20T09:36:03.105Z,3.365
2023-04-20T09:37:03.689Z,3.254
2023-04-20T09:38:03.193Z,3.254
2023-04-20T09:39:03.238Z,3.37
2023-04-20T09:40:03.262Z,3.37
2023-04-20T09:41:03.307Z,3.484
2023-04-20T09:42:03.514Z,3.351
2023-04-20T09:44:03.435Z,3.367
2023-04-20T09:45:03.504Z,3.446
2023-04-20T09:46:03.646Z,3.479
2023-04-20T09:47:03.568Z,3.446
2023-04-20T09:48:03.624Z,3.479
2023-04-20T09:49:03.654Z,3.56
2023-04-20T09:50:14.199Z,3.609
2023-04-20T09:51:03.727Z,3.641
2023-04-20T09:52:03.786Z,3.628
2023-04-20T09:53:03.815Z,3.579
2023-04-20T09:54:03.842Z,3.563
2023-04-20T09:55:03.882Z,3.53
2023-04-20T09:56:03.925Z,3.614
2023-04-20T09:57:03.969Z,3.614
2023-04-20T09:58:04.025Z,3.594
2023-04-20T09:59:04.055Z,3.61
2023-04-20T10:00:04.090Z,3.659
2023-04-20T10:01:04.178Z,3.71
2023-04-20T10:02:04.293Z,3.697
2023-04-20T10:03:04.401Z,3.66
2023-04-20T10:04:04.419Z,3.579
2023-04-20T10:05:04.294Z,3.712
2023-04-20T10:06:04.335Z,3.642
2023-04-20T10:07:04.373Z,3.694
2023-04-20T10:08:04.411Z,3.806
2023-04-20T10:09:04.445Z,3.776
2023-04-20T10:10:04.478Z,3.648
2023-04-20T10:11:04.518Z,3.577
2023-04-20T10:12:04.574Z,3.563
2023-04-20T10:13:04.597Z,3.475
2023-04-20T10:14:04.633Z,3.341
2023-04-20T10:15:04.671Z,3.324
2023-04-20T10:16:04.717Z,3.256
2023-04-20T10:17:04.980Z,3.273
2023-04-20T10:18:04.879Z,3.137
2023-04-20T10:19:05.779Z,3.103
2023-04-20T10:20:04.868Z,3.105
2023-04-20T10:21:04.911Z,2.967
2023-04-20T10:22:04.938Z,2.828
2023-04-20T10:23:04.981Z,2.865
2023-04-20T10:24:05.033Z,2.945
2023-04-20T10:25:05.068Z,2.945
2023-04-20T10:26:05.095Z,2.893
2023-04-20T10:27:05.148Z,2.946
2023-04-20T10:28:05.197Z,3.016
2023-04-20T10:29:05.227Z,3.085
2023-04-20T10:30:05.266Z,3.233
2023-04-20T10:31:05.409Z,3.233
2023-04-20T10:32:05.348Z,3.217
2023-04-20T10:33:05.460Z,3.202
2023-04-20T10:34:05.438Z,3.167
2023-04-20T10:35:05.463Z,2.994
2023-04-20T10:36:05.516Z,2.89
2023-04-20T10:37:05.548Z,2.953
2023-04-20T10:38:05.579Z,3.059
2023-04-20T10:39:05.659Z,2.972
2023-04-20T10:40:07.712Z,2.99
2023-04-20T10:41:05.711Z,3.036
2023-04-20T10:42:05.748Z,2.913
2023-04-20T10:43:05.798Z,3.089
2023-04-20T10:44:05.838Z,2.897
2023-04-20T10:45:05.892Z,3.03
2023-04-20T10:46:05.941Z,3.066
2023-04-20T10:47:05.959Z,3.068
2023-04-20T10:48:06.027Z,3.19
2023-04-20T10:49:06.060Z,3.287
2023-04-20T10:50:06.092Z,3.271
2023-04-20T10:51:06.129Z,3.063
2023-04-20T10:52:06.177Z,2.974
2023-04-20T10:53:06.254Z,3.162
2023-04-20T10:54:06.274Z,3.049
2023-04-20T10:55:06.292Z,3.05
2023-04-20T10:56:06.337Z,3.015
2023-04-20T10:57:06.366Z,3.051
2023-04-20T10:58:06.416Z,3.061
2023-04-20T10:59:06.453Z,2.738
2023-04-20T11:00:06.490Z,2.8
2023-04-20T11:01:06.523Z,2.818
2023-04-20T11:02:06.677Z,2.746
2023-04-20T11:03:06.700Z,2.764
2023-04-20T11:04:06.652Z,2.691
2023-04-20T11:05:06.735Z,2.763
2023-04-20T11:06:06.739Z,2.818
2023-04-20T11:07:06.780Z,2.818
2023-04-20T11:08:06.817Z,2.782
2023-04-20T11:09:06.855Z,2.818
2023-04-20T11:10:06.893Z,2.962
2023-04-20T11:11:06.928Z,2.926
2023-04-20T11:12:06.974Z,2.774
2023-04-20T11:13:07.020Z,2.665
2023-04-20T11:14:07.053Z,2.738
2023-04-20T11:15:07.101Z,2.756
2023-04-20T11:16:07.152Z,2.629
2023-04-20T11:17:07.247Z,2.857
2023-04-20T11:18:07.245Z,2.857
2023-04-20T11:19:07.246Z,2.785
2023-04-20T11:20:07.292Z,2.73
2023-04-20T11:21:07.330Z,2.73
2023-04-20T11:22:07.371Z,2.766
2023-04-20T11:23:07.408Z,2.785
2023-04-20T11:24:07.457Z,2.767
2023-04-20T11:25:07.509Z,2.639
2023-04-20T11:26:07.550Z,2.639
2023-04-20T11:27:07.580Z,2.749
2023-04-20T11:28:07.637Z,2.712
2023-04-20T11:29:07.659Z,2.694
2023-04-20T11:30:07.746Z,2.749
2023-04-20T11:31:07.785Z,2.657
2023-04-20T11:32:07.883Z,2.62
2023-04-20T11:33:07.953Z,2.491
2023-04-20T11:34:07.891Z,2.491
2023-04-20T11:35:08.092Z,2.546
2023-04-20T11:36:07.948Z,2.574
2023-04-20T11:37:07.998Z,2.537
2023-04-20T11:38:08.033Z,2.701
2023-04-20T11:39:08.097Z,2.537
2023-04-20T11:40:08.119Z,2.472
2023-04-20T11:41:08.169Z,2.637
2023-04-20T11:42:08.212Z,2.764
2023-04-20T11:43:08.242Z,2.655
2023-04-20T11:44:08.304Z,2.738
2023-04-20T11:45:08.316Z,2.665
2023-04-20T11:46:08.365Z,2.683
2023-04-20T11:47:08.384Z,2.829
2023-04-20T11:48:08.479Z,2.665
2023-04-20T11:49:08.475Z,2.62
2023-04-20T11:50:08.507Z,2.647
2023-04-20T11:51:08.541Z,2.555
2023-04-20T11:52:08.591Z,2.72
2023-04-20T11:53:08.629Z,2.72
2023-04-20T11:54:08.672Z,2.811
2023-04-20T11:55:08.710Z,2.829
2023-04-20T11:56:08.744Z,2.893
2023-04-20T11:57:08.796Z,2.73
2023-04-20T11:58:08.848Z,2.748
2023-04-20T11:59:08.861Z,2.785
2023-04-20T12:00:08.910Z,2.857
2023-04-20T12:01:08.937Z,2.821
2023-04-20T12:02:09.045Z,2.712
2023-04-20T12:03:09.138Z,2.722
2023-04-20T12:04:09.250Z,2.703
2023-04-20T12:05:09.191Z,2.704
2023-04-20T12:06:09.152Z,2.832
2023-04-20T12:07:09.214Z,2.777
2023-04-20T12:08:09.237Z,2.842
2023-04-20T12:09:09.273Z,2.824
2023-04-20T12:10:09.315Z,2.658
2023-04-20T12:11:09.352Z,2.63
2023-04-20T12:12:09.401Z,2.649
2023-04-20T12:13:09.431Z,2.834
2023-04-20T12:14:09.492Z,2.778
2023-04-20T12:15:09.512Z,2.63
2023-04-20T12:16:09.606Z,2.76
2023-04-20T12:17:09.596Z,2.889
2023-04-20T12:18:09.690Z,2.612
2023-04-20T12:19:09.695Z,2.779
2023-04-20T12:20:09.702Z,2.834
2023-04-20T12:21:09.744Z,2.779
2023-04-20T12:22:09.783Z,2.686
2023-04-20T12:23:09.820Z,2.917
2023-04-20T12:24:09.881Z,2.677
2023-04-20T12:25:09.908Z,2.88
2023-04-20T12:26:09.939Z,2.602
2023-04-20T12:27:09.974Z,2.806
2023-04-20T12:28:10.010Z,2.899
2023-04-20T12:29:10.056Z,2.899
2023-04-20T12:30:10.096Z,2.77
2023-04-20T12:31:10.190Z,2.742
2023-04-20T12:32:10.180Z,2.723
2023-04-20T12:33:10.300Z,2.779
2023-04-20T12:34:10.265Z,2.779
2023-04-20T12:35:10.302Z,2.844
2023-04-20T12:36:10.355Z,2.695
2023-04-20T12:37:10.392Z,2.751
2023-04-20T12:38:11.746Z,2.862
2023-04-20T12:39:10.464Z,2.825
2023-04-20T12:40:10.528Z,2.862
2023-04-20T12:41:10.563Z,2.788
2023-04-20T12:42:10.596Z,2.899
2023-04-20T12:43:10.627Z,2.788
2023-04-20T12:44:11.462Z,2.844
2023-04-20T12:45:10.726Z,2.732
2023-04-20T12:46:10.796Z,2.751
2023-04-20T12:47:10.991Z,2.972
2023-04-20T12:48:10.879Z,3.026
2023-04-20T12:49:10.884Z,2.944
2023-04-20T12:50:10.959Z,3.053
2023-04-20T12:51:10.964Z,3.017
2023-04-20T12:52:11.003Z,2.999
2023-04-20T12:53:11.057Z,3.162
2023-04-20T12:54:11.093Z,3.099
2023-04-20T12:55:11.120Z,3.153
2023-04-20T12:56:11.158Z,3.081
2023-04-20T12:57:11.194Z,3.118
2023-04-20T12:58:11.247Z,3.154
2023-04-20T12:59:11.289Z,3.027
2023-04-20T13:00:13.253Z,3.073
2023-04-20T13:01:11.482Z,3.128
2023-04-20T13:02:11.522Z,3.092